Time;durP1;ratioP1;P1;durP2;ratioP2;P2;SDS_P1;SDS_P2;PMS_P1;PMS_P2;Temp;Humidity;BMP_temperature;BMP_pressure;BME280_temperature;BME280_humidity;BME280_pressure;Samples;Min_cycle;Max_cycle;Signal;HPM_P1;HPM_P2
2023/01/27 00:00:14;;;;;;;13.13;6.25;;;;;;;9.66;83.96;100903.72;4963394;28;20038;-87
2023/01/27 00:02:42;;;;;;;10.43;5.63;;;;;;;9.62;83.52;100897.41;4956197;28;20086;-88
2023/01/27 00:05:09;;;;;;;12.25;5.70;;;;;;;10.02;84.06;100962.38;4950616;28;20027;-88
2023/01/27 00:07:34;;;;;;;9.05;5.57;;;;;;;10.02;83.67;100953.66;4954012;28;20062;-86
2023/01/27 00:10:00;;;;;;;11.60;5.82;;;;;;;9.71;83.84;100897.03;4963040;28;20539;-87
2023/01/27 00:15:12;;;;;;;10.98;5.53;;;;;;;9.97;83.86;100929.91;4956618;28;20045;-87
2023/01/27 00:17:37;;;;;;;10.68;5.78;;;;;;;10.01;83.63;100929.25;4951191;28;20133;-86
2023/01/27 00:20:04;;;;;;;10.30;5.80;;;;;;;9.82;84.45;100900.28;4951603;28;20512;-88
2023/01/27 00:25:16;;;;;;;11.20;5.90;;;;;;;9.79;84.26;100895.78;4971030;28;20046;-88
2023/01/27 00:27:42;;;;;;;13.10;5.80;;;;;;;9.83;84.07;100913.44;4954026;28;20119;-88
2023/01/27 00:30:09;;;;;;;12.77;6.72;;;;;;;9.78;84.15;100901.84;4959456;28;20086;-88
2023/01/27 00:35:20;;;;;;;11.65;5.65;;;;;;;9.77;84.31;100910.44;4967144;28;20033;-88
2023/01/27 00:37:47;;;;;;;12.45;5.53;;;;;;;9.95;84.19;100919.38;4954136;28;20026;-89
2023/01/27 00:40:14;;;;;;;11.30;5.70;;;;;;;9.86;83.86;100897.06;4965801;28;20031;-89
2023/01/27 00:42:41;;;;;;;12.95;6.03;;;;;;;9.96;84.15;100915.94;4952630;28;20034;-89
2023/01/27 00:47:51;;;;;;;11.77;5.97;;;;;;;9.90;84.19;100889.50;4966237;28;20110;-89
2023/01/27 00:50:18;;;;;;;11.88;6.13;;;;;;;9.89;83.90;100905.97;4956451;28;20102;-89
2023/01/27 00:52:44;;;;;;;10.38;5.65;;;;;;;9.82;84.13;100893.38;4955906;28;20110;-89
2023/01/27 00:55:11;;;;;;;11.43;5.00;;;;;;;10.01;84.03;100917.91;4959333;28;20063;-88
2023/01/27 00:57:38;;;;;;;12.15;6.03;;;;;;;9.88;83.72;100895.44;4941264;28;20037;-90
2023/01/27 01:00:05;;;;;;;9.88;5.65;;;;;;;9.98;83.43;100903.00;4948131;28;20039;-89
2023/01/27 01:02:31;;;;;;;10.50;5.43;;;;;;;9.84;83.79;100883.03;4966686;28;20041;-89
2023/01/27 01:04:57;;;;;;;;;;;;;;;9.99;84.04;100929.19;4952654;28;20035;-89
2023/01/27 01:07:24;;;;;;;12.85;5.82;;;;;;;9.85;84.27;100918.75;4971181;28;19920;-89
2023/01/27 01:09:52;;;;;;;10.73;5.40;;;;;;;9.93;83.66;100957.50;4972679;28;20037;-88
2023/01/27 01:12:18;;;;;;;10.48;5.65;;;;;;;9.65;83.83;100886.25;4964126;28;20464;-89
2023/01/27 01:14:45;;;;;;;8.60;5.20;;;;;;;10.05;83.82;100946.88;4957663;28;20062;-89
2023/01/27 01:17:12;;;;;;;10.40;5.50;;;;;;;9.81;83.95;100909.81;4940562;28;20035;-89
2023/01/27 01:19:42;;;;;;;10.57;5.72;;;;;;;9.95;83.62;100926.31;4951023;28;20512;-89
2023/01/27 01:22:09;;;;;;;11.95;5.50;;;;;;;9.93;83.51;100922.72;4965656;28;20097;-89
2023/01/27 01:24:35;;;;;;;12.23;5.95;;;;;;;9.79;83.56;100880.16;4956602;28;20047;-89
2023/01/27 01:27:02;;;;;;;12.75;5.72;;;;;;;9.95;83.36;100903.72;4957151;28;20062;-90
2023/01/27 01:29:27;;;;;;;12.48;5.32;;;;;;;10.11;83.39;100920.25;4972800;28;20109;-89
2023/01/27 01:31:54;;;;;;;9.38;5.45;;;;;;;9.94;83.29;100874.94;4950722;29;20122;-89
2023/01/27 01:34:20;;;;;;;10.20;5.45;;;;;;;9.95;83.57;100874.13;4941052;28;20030;-89
2023/01/27 01:36:49;;;;;;;10.27;5.55;;;;;;;9.97;83.85;100880.34;4956202;28;20511;-90
2023/01/27 01:39:16;;;;;;;13.38;5.72;;;;;;;10.05;83.96;100881.66;4957260;28;20026;-89
2023/01/27 01:41:42;;;;;;;10.70;5.63;;;;;;;9.64;84.14;100794.09;4940389;28;20035;-89
2023/01/27 01:44:26;;;;;;;12.07;5.60;;;;;;;10.00;84.37;100859.63;4956628;28;20031;-89
2023/01/27 01:46:52;;;;;;;11.30;5.55;;;;;;;9.82;84.37;100820.38;4955514;28;20648;-89
2023/01/27 01:49:25;;;;;;;11.38;5.70;;;;;;;9.84;84.02;100800.50;4970924;28;20131;-89
2023/01/27 01:51:54;;;;;;;11.45;5.53;;;;;;;9.89;84.51;100814.69;4955895;28;20023;-90
2023/01/27 01:54:20;;;;;;;13.07;5.90;;;;;;;9.96;84.69;100823.75;4956535;28;20034;-89
2023/01/27 01:57:07;;;;;;;13.27;6.00;;;;;;;9.98;84.46;100825.63;4963178;28;20042;-89
2023/01/27 01:59:40;;;;;;;13.18;5.57;;;;;;;9.73;84.46;100778.09;4952432;28;20401;-90
2023/01/27 02:02:11;;;;;;;10.68;6.03;;;;;;;10.00;84.43;100812.69;4941863;28;20039;-89
2023/01/27 02:04:41;;;;;;;10.98;5.80;;;;;;;9.87;84.46;100794.53;4939243;28;20031;-89
2023/01/27 02:07:12;;;;;;;12.65;5.55;;;;;;;9.70;84.47;100770.09;4966218;28;20511;-88
2023/01/27 02:09:39;;;;;;;10.30;5.97;;;;;;;9.90;84.11;100782.53;4967725;28;20457;-89
2023/01/27 02:12:05;;;;;;;11.57;5.82;;;;;;;9.98;84.28;100783.00;4956087;28;20031;-88
2023/01/27 02:14:30;;;;;;;13.25;5.97;;;;;;;9.84;85.02;100758.75;4963770;28;20408;-87
2023/01/27 02:17:00;;;;;;;14.80;6.55;;;;;;;9.79;85.11;100757.56;4957374;28;20038;-88
2023/01/27 02:19:57;;;;;;;14.77;6.55;;;;;;;9.93;85.30;100772.31;4971973;28;20054;-86
2023/01/27 02:22:40;;;;;;;14.75;6.70;;;;;;;9.81;85.18;100742.03;4969338;28;20681;-89
2023/01/27 02:25:34;;;;;;;12.02;6.32;;;;;;;9.96;85.23;100750.69;4962311;28;20031;-89
2023/01/27 02:28:01;;;;;;;15.63;6.60;;;;;;;9.95;84.96;100734.16;4967490;28;20049;-89
2023/01/27 02:30:40;;;;;;;15.57;6.82;;;;;;;9.79;85.18;100701.09;4971844;28;20018;-90
2023/01/27 02:33:13;;;;;;;16.08;6.35;;;;;;;9.89;85.14;100714.66;4966212;28;20541;-90
2023/01/27 02:36:06;;;;;;;14.77;6.78;;;;;;;9.93;85.22;100730.56;4968769;28;20034;-90
2023/01/27 02:38:36;;;;;;;13.38;5.97;;;;;;;9.97;84.50;100734.25;4965799;28;20030;-88
2023/01/27 02:41:17;;;;;;;12.82;5.85;;;;;;;9.84;84.98;100706.59;4944365;28;20110;-91
2023/01/27 02:43:48;;;;;;;12.50;6.43;;;;;;;9.88;84.41;100710.25;4951592;28;20019;-91
2023/01/27 02:46:14;;;;;;;13.30;5.85;;;;;;;9.97;84.72;100711.66;4955928;28;20186;-90
2023/01/27 02:48:40;;;;;;;12.15;5.88;;;;;;;9.66;85.27;100658.63;4967519;28;20112;-90
2023/01/27 02:51:13;;;;;;;15.85;6.35;;;;;;;10.02;84.55;100700.59;4955744;28;20493;-91
2023/01/27 02:53:39;;;;;;;13.18;6.13;;;;;;;9.87;84.79;100671.97;4969111;28;20033;-90
2023/01/27 02:56:05;;;;;;;13.38;5.63;;;;;;;9.68;84.76;100657.00;4955395;28;20035;-90
2023/01/27 02:58:33;;;;;;;15.02;6.05;;;;;;;9.77;84.45;100670.53;4955070;28;20041;-90
2023/01/27 03:00:59;;;;;;;11.68;6.15;;;;;;;9.92;84.51;100697.47;4972335;28;20039;-89
2023/01/27 03:03:24;;;;;;;12.68;6.13;;;;;;;9.90;84.36;100665.16;4962208;28;20031;-90
2023/01/27 03:05:53;;;;;;;15.65;6.63;;;;;;;9.98;84.77;100681.25;4939404;28;20030;-90
2023/01/27 03:08:19;;;;;;;16.80;6.82;;;;;;;9.87;84.99;100679.78;4938413;28;20030;-90
2023/01/27 03:10:55;;;;;;;14.63;6.35;;;;;;;9.90;85.04;100687.75;4965987;28;20492;-89
2023/01/27 03:13:24;;;;;;;13.07;6.85;;;;;;;10.04;85.08;100718.13;4971792;28;20125;-89
2023/01/27 03:18:46;;;;;;;12.35;6.15;;;;;;;9.86;84.71;100677.97;4958364;28;20102;-90
2023/01/27 03:21:14;;;;;;;12.43;6.30;;;;;;;9.83;84.33;100668.28;4939961;28;20037;-91
2023/01/27 03:23:40;;;;;;;13.98;6.78;;;;;;;10.06;84.43;100703.44;4967031;28;20507;-90
2023/01/27 03:26:08;;;;;;;12.65;6.40;;;;;;;10.06;84.68;100708.66;4935043;29;20642;-89
2023/01/27 03:28:34;;;;;;;16.92;6.57;;;;;;;10.11;84.42;100716.75;4950146;28;20038;-90
2023/01/27 03:31:03;;;;;;;12.88;6.05;;;;;;;9.96;84.60;100675.06;4939676;28;20030;-89
2023/01/27 03:33:30;;;;;;;16.48;7.18;;;;;;;10.01;84.41;100677.91;4968563;28;20079;-90
2023/01/27 03:47:10;;;;;;;15.85;6.80;;;;;;;10.01;84.62;100665.75;4958295;28;20431;-89
2023/01/27 03:49:36;;;;;;;14.98;6.50;;;;;;;10.03;85.07;100666.75;4953562;28;20054;-89
2023/01/27 03:52:03;;;;;;;15.65;6.60;;;;;;;10.06;84.84;100666.94;4954276;28;20042;-90
2023/01/27 03:54:39;;;;;;;16.05;6.75;;;;;;;10.09;84.99;100663.56;4939218;28;20046;-91
2023/01/27 03:57:18;;;;;;;14.10;6.30;;;;;;;10.10;84.90;100650.63;4955690;28;20038;-91
2023/01/27 03:59:51;;;;;;;16.23;6.53;;;;;;;10.07;84.93;100645.22;4958089;28;20027;-91
2023/01/27 04:07:45;;;;;;;16.92;6.65;;;;;;;10.19;84.35;100653.72;4955045;28;20084;-89
2023/01/27 04:10:14;;;;;;;15.52;6.50;;;;;;;10.18;84.51;100664.06;4970322;28;20105;-90
2023/01/27 04:12:40;;;;;;;15.40;7.35;;;;;;;10.04;84.83;100639.84;4953935;28;20122;-90
2023/01/27 04:15:12;;;;;;;16.10;6.60;;;;;;;10.11;85.00;100657.63;4954679;28;20400;-89
2023/01/27 04:17:40;;;;;;;14.63;6.22;;;;;;;10.11;84.94;100659.34;4939863;28;20031;-91
2023/01/27 04:20:07;;;;;;;13.13;6.65;;;;;;;10.10;84.87;100660.16;4919009;29;20054;-88
2023/01/27 04:22:33;;;;;;;14.82;6.60;;;;;;;10.05;84.75;100641.63;4932251;29;20407;-89
2023/01/27 04:24:59;;;;;;;13.75;6.25;;;;;;;9.84;84.67;100596.13;4939528;29;20027;-88
2023/01/27 04:27:28;;;;;;;17.90;7.80;;;;;;;10.14;85.39;100655.19;4955207;28;20110;-89
2023/01/27 04:29:54;;;;;;;15.27;6.65;;;;;;;9.88;84.94;100585.06;4923425;29;20051;-88
2023/01/27 04:32:21;;;;;;;14.38;6.63;;;;;;;10.08;84.72;100610.50;4945948;28;20023;-90
2023/01/27 04:34:56;;;;;;;14.48;6.55;;;;;;;10.03;85.07;100619.78;4936634;29;20082;-90
2023/01/27 04:37:26;;;;;;;16.88;7.30;;;;;;;9.99;84.86;100610.03;4934729;28;20031;-90
2023/01/27 04:40:44;;;;;;;15.68;7.03;;;;;;;10.16;85.15;100632.69;4955799;29;20109;-92
2023/01/27 04:43:12;;;;;;;17.20;7.45;;;;;;;10.02;85.72;100609.28;4947375;29;20031;-91
2023/01/27 04:45:38;;;;;;;17.00;6.68;;;;;;;10.13;84.71;100640.34;4938231;29;20513;-91
2023/01/27 04:48:28;;;;;;;16.02;7.20;;;;;;;10.13;85.11;100632.50;4939981;29;20468;-92
2023/01/27 04:51:03;;;;;;;17.00;6.90;;;;;;;9.97;84.61;100602.13;4938064;29;20094;-91
2023/01/27 04:53:30;;;;;;;12.32;6.47;;;;;;;10.22;84.53;100626.88;4931574;28;20410;-91
2023/01/27 04:56:11;;;;;;;17.50;6.57;;;;;;;10.30;84.03;100632.56;4939518;29;20493;-90
2023/01/27 04:58:39;;;;;;;18.35;7.95;;;;;;;10.26;84.21;100649.72;4923817;29;20023;-90
2023/01/27 05:01:05;;;;;;;18.85;7.18;;;;;;;10.26;83.94;100644.50;4939298;29;20394;-91
2023/01/27 05:03:31;;;;;;;15.82;7.05;;;;;;;10.07;83.81;100606.09;4939139;29;20031;-88
2023/01/27 05:05:58;;;;;;;13.90;6.25;;;;;;;10.27;84.26;100627.16;4929044;29;20039;-88
2023/01/27 05:08:23;;;;;;;16.38;6.93;;;;;;;10.11;83.70;100591.50;4938266;29;20341;-86
2023/01/27 05:10:51;;;;;;;15.10;6.63;;;;;;;10.09;84.14;100603.56;4929981;29;20012;-88
2023/01/27 05:13:16;;;;;;;14.25;7.00;;;;;;;10.01;84.43;100599.66;4938888;29;20031;-87
2023/01/27 05:15:42;;;;;;;16.10;6.80;;;;;;;9.94;84.13;100569.75;4954450;28;20078;-88
2023/01/27 05:18:08;;;;;;;15.05;6.68;;;;;;;10.16;84.64;100606.59;4930844;29;20509;-88
2023/01/27 05:20:34;;;;;;;18.40;7.18;;;;;;;9.92;84.81;100577.47;4937305;28;20459;-89
2023/01/27 05:23:46;;;;;;;16.40;7.18;;;;;;;10.20;84.74;100625.91;4939841;29;20075;-88
2023/01/27 05:25:54;;;;;;;13.10;6.18;;;;;;;10.04;84.11;100587.69;4957387;28;20039;-90
2023/01/27 05:28:19;;;;;;;14.70;6.93;;;;;;;10.12;84.44;100595.94;4936785;29;20038;-84
2023/01/27 05:30:45;;;;;;;16.05;7.50;;;;;;;10.19;84.60;100624.13;4937341;29;20104;-87
2023/01/27 05:33:14;;;;;;;19.65;7.68;;;;;;;9.86;85.22;100563.22;4952744;28;20481;-88
2023/01/27 05:35:39;;;;;;;20.83;7.90;;;;;;;10.16;85.15;100619.66;4953277;29;20037;-88
2023/01/27 05:38:24;;;;;;;17.92;7.40;;;;;;;10.23;84.97;100619.97;4922956;29;20039;-91
2023/01/27 05:40:54;;;;;;;17.23;7.28;;;;;;;10.25;84.64;100614.00;4935445;29;20117;-90
2023/01/27 05:43:21;;;;;;;17.65;7.13;;;;;;;10.08;84.54;100593.97;4954767;28;20047;-90
2023/01/27 05:45:47;;;;;;;19.45;7.57;;;;;;;10.24;84.36;100612.19;4954621;29;20167;-90
2023/01/27 05:48:14;;;;;;;16.70;7.75;;;;;;;9.93;84.44;100562.75;4938895;29;20038;-88
2023/01/27 05:50:43;;;;;;;15.50;7.32;;;;;;;10.07;85.13;100581.72;4937573;29;20050;-89
2023/01/27 05:53:09;;;;;;;15.98;7.15;;;;;;;9.82;84.95;100515.25;4939019;29;20031;-87
2023/01/27 05:55:37;;;;;;;18.25;7.30;;;;;;;10.18;84.40;100567.50;4937776;29;20035;-90
2023/01/27 05:58:02;;;;;;;14.77;6.70;;;;;;;10.26;84.24;100560.97;4919038;29;20516;-90
2023/01/27 06:00:28;;;;;;;13.68;6.95;;;;;;;9.84;83.77;100481.38;4937705;29;20047;-90
2023/01/27 06:02:57;;;;;;;14.77;7.22;;;;;;;10.21;84.09;100540.72;4926664;28;20045;-88
2023/01/27 06:05:22;;;;;;;13.70;7.07;;;;;;;10.19;83.95;100536.28;4921921;29;20031;-86
2023/01/27 06:07:49;;;;;;;14.95;7.32;;;;;;;10.23;84.18;100547.78;4952998;28;20030;-90
2023/01/27 06:10:17;;;;;;;16.55;7.43;;;;;;;10.13;84.61;100548.13;4935716;29;20039;-88
2023/01/27 06:13:00;;;;;;;13.07;7.32;;;;;;;10.22;84.16;100550.31;4938233;28;20027;-90
2023/01/27 06:15:26;;;;;;;14.10;6.97;;;;;;;10.22;84.08;100550.31;4948098;28;20035;-89
2023/01/27 06:17:54;;;;;;;14.23;7.15;;;;;;;10.13;84.08;100550.75;4951826;28;20081;-90
2023/01/27 06:20:20;;;;;;;13.98;7.18;;;;;;;10.30;84.48;100576.03;4944955;28;20088;-89
2023/01/27 06:22:53;;;;;;;17.80;7.07;;;;;;;10.35;84.10;100565.81;4962917;28;20040;-89
2023/01/27 06:25:19;;;;;;;15.65;6.82;;;;;;;10.26;83.92;100540.09;4935640;29;20457;-89
2023/01/27 06:27:53;;;;;;;15.55;7.25;;;;;;;10.28;83.94;100537.59;4958526;28;20047;-90
2023/01/27 06:30:20;;;;;;;15.63;6.97;;;;;;;10.24;84.01;100531.31;4936091;29;20035;-87
2023/01/27 06:32:46;;;;;;;14.70;7.20;;;;;;;10.32;83.67;100548.28;4917912;29;20105;-88
2023/01/27 06:35:12;;;;;;;14.50;6.93;;;;;;;10.10;83.77;100527.13;4956633;28;20437;-89
2023/01/27 06:37:39;;;;;;;14.88;7.15;;;;;;;10.25;84.05;100550.50;4917982;29;20032;-88
2023/01/27 06:40:24;;;;;;;16.00;7.13;;;;;;;10.35;84.32;100579.78;4932513;28;20046;-89
2023/01/27 06:42:50;;;;;;;16.58;6.95;;;;;;;10.26;83.76;100560.97;4915573;29;20072;-87
2023/01/27 06:45:18;;;;;;;14.98;7.22;;;;;;;10.29;83.52;100563.81;4936855;29;20030;-89
2023/01/27 06:47:44;;;;;;;15.70;7.82;;;;;;;10.34;84.01;100572.75;4921265;29;20093;-89
2023/01/27 06:50:11;;;;;;;14.98;7.20;;;;;;;10.39;83.89;100573.00;4927310;29;20497;-90
2023/01/27 06:52:37;;;;;;;18.00;8.20;;;;;;;10.44;83.44;100574.13;4951946;28;20050;-90
2023/01/27 06:55:03;;;;;;;17.70;7.20;;;;;;;10.38;83.56;100563.38;4935699;29;20073;-88
2023/01/27 06:57:29;;;;;;;;;;;;;;;10.43;83.57;100566.22;4950175;29;20035;-90
2023/01/27 06:59:57;;;;;;;14.40;7.13;;;;;;;10.27;83.75;100534.09;4954137;28;19915;-91
2023/01/27 07:02:23;;;;;;;18.10;8.18;;;;;;;10.27;83.92;100552.34;4951405;28;20028;-88
2023/01/27 07:04:52;;;;;;;18.17;8.52;;;;;;;10.33;84.16;100551.81;4919498;29;20038;-91
2023/01/27 07:07:21;;;;;;;15.82;7.55;;;;;;;10.42;83.97;100559.22;4921645;29;20154;-90
2023/01/27 07:09:46;;;;;;;14.52;7.35;;;;;;;10.45;83.51;100561.97;4919084;29;20027;-90
2023/01/27 07:12:13;;;;;;;16.30;8.05;;;;;;;10.47;83.23;100565.56;4919284;29;20555;-90
2023/01/27 07:14:48;;;;;;;17.45;7.68;;;;;;;10.51;83.56;100570.13;4937434;29;20508;-92
2023/01/27 07:17:16;;;;;;;19.05;7.53;;;;;;;10.42;83.76;100567.94;4942940;28;20489;-89
2023/01/27 07:19:45;;;;;;;15.50;7.85;;;;;;;10.41;83.46;100567.84;4950804;28;20125;-88
2023/01/27 07:22:12;;;;;;;14.93;7.57;;;;;;;10.32;83.57;100552.63;4940240;28;20066;-91
2023/01/27 07:24:46;;;;;;;15.88;7.03;;;;;;;10.32;84.03;100555.22;4953087;28;20403;-88
2023/01/27 07:27:28;;;;;;;15.25;7.55;;;;;;;10.46;83.69;100571.63;4956014;28;20035;-91
2023/01/27 07:29:57;;;;;;;18.35;7.53;;;;;;;10.38;83.38;100553.81;4944624;28;20058;-91
2023/01/27 07:32:23;;;;;;;13.93;6.75;;;;;;;10.35;83.46;100540.63;4963021;28;20070;-94
2023/01/27 07:34:56;;;;;;;16.13;7.03;;;;;;;10.43;83.58;100542.72;4955478;28;20485;-92
2023/01/27 07:37:24;;;;;;;16.00;7.18;;;;;;;10.40;83.77;100543.47;4956418;28;20033;-92
2023/01/27 07:40:22;;;;;;;12.32;7.30;;;;;;;10.53;83.42;100556.31;4956570;28;20177;-90
2023/01/27 07:42:52;;;;;;;18.90;7.80;;;;;;;10.48;83.80;100541.25;4944197;28;20832;-90
2023/01/27 07:45:18;;;;;;;13.90;7.15;;;;;;;10.50;83.79;100543.13;4956340;28;20037;-90
2023/01/27 07:48:15;;;;;;;13.07;6.53;;;;;;;10.45;83.97;100528.94;4955615;28;20018;-90
2023/01/27 07:50:43;;;;;;;15.77;7.15;;;;;;;10.36;83.72;100515.41;4927868;28;20117;-91
2023/01/27 07:53:09;;;;;;;15.95;7.32;;;;;;;10.33;83.82;100504.84;4972508;28;20093;-91
2023/01/27 07:55:37;;;;;;;16.25;7.57;;;;;;;10.51;84.11;100533.56;4952372;28;20034;-90
2023/01/27 07:58:03;;;;;;;13.93;7.30;;;;;;;10.52;83.85;100536.28;4956514;28;20062;-92
2023/01/27 08:00:39;;;;;;;16.67;6.53;;;;;;;10.49;83.63;100520.44;4968953;28;20421;-91
2023/01/27 08:03:36;;;;;;;13.52;7.13;;;;;;;10.56;83.51;100514.72;4956838;28;20046;-92
2023/01/27 08:06:23;;;;;;;16.98;7.13;;;;;;;10.58;83.67;100512.16;4948275;28;20038;-91
2023/01/27 08:08:51;;;;;;;13.75;6.70;;;;;;;10.58;83.82;100502.63;4932126;28;20023;-92
2023/01/27 08:11:22;;;;;;;11.38;6.93;;;;;;;10.44;83.45;100482.78;4955898;28;20081;-91
2023/01/27 08:13:51;;;;;;;17.75;8.80;;;;;;;10.47;83.70;100482.91;4943033;28;20058;-92
2023/01/27 08:16:32;;;;;;;16.67;8.73;;;;;;;10.43;83.40;100465.31;4972164;28;20026;-91
2023/01/27 08:18:58;;;;;;;16.27;8.35;;;;;;;10.62;83.29;100492.31;4947103;28;20043;-91
2023/01/27 08:21:33;;;;;;;14.27;7.20;;;;;;;10.59;83.09;100462.63;4956533;28;20034;-91
2023/01/27 08:24:15;;;;;;;18.17;7.30;;;;;;;10.63;83.33;100483.69;4945378;28;20489;-92
2023/01/27 08:26:52;;;;;;;16.13;7.75;;;;;;;10.65;83.07;100496.00;4951171;28;20136;-92
2023/01/27 08:29:18;;;;;;;15.02;7.82;;;;;;;10.54;83.13;100485.03;4952098;28;20485;-92
2023/01/27 08:32:05;;;;;;;13.73;7.35;;;;;;;10.70;82.70;100520.59;4951445;28;20019;-91
2023/01/27 08:34:34;;;;;;;13.45;7.07;;;;;;;10.47;82.38;100472.47;4952455;29;20137;-91
2023/01/27 08:37:03;;;;;;;13.00;6.88;;;;;;;10.74;82.43;100542.56;4965547;28;20027;-90
2023/01/27 08:39:34;;;;;;;12.23;6.45;;;;;;;10.61;82.52;100534.94;4940095;28;20417;-90
2023/01/27 08:42:02;;;;;;;16.95;7.00;;;;;;;10.59;82.13;100538.34;4939389;28;20031;-92
2023/01/27 08:44:34;;;;;;;14.02;7.00;;;;;;;10.51;82.26;100523.13;4965623;28;20080;-91
2023/01/27 08:47:21;;;;;;;13.00;6.13;;;;;;;10.76;82.48;100549.63;4959856;28;20519;-91
2023/01/27 08:49:53;;;;;;;12.65;6.50;;;;;;;10.58;82.53;100528.75;4931922;28;20023;-90
2023/01/27 08:52:22;;;;;;;11.48;6.47;;;;;;;10.56;82.37;100526.84;4955928;28;20050;-91
2023/01/27 08:54:50;;;;;;;11.15;6.25;;;;;;;10.64;82.57;100537.69;4936991;28;20027;-91
2023/01/27 08:57:19;;;;;;;12.30;6.78;;;;;;;10.72;82.07;100550.31;4934991;28;20502;-91
2023/01/27 09:00:13;;;;;;;11.43;6.80;;;;;;;10.80;82.43;100567.25;4939318;28;20035;-91
2023/01/27 09:02:38;;;;;;;12.90;6.60;;;;;;;10.61;82.21;100533.22;4960798;28;20038;-91
2023/01/27 09:05:34;;;;;;;13.70;6.95;;;;;;;10.79;82.41;100549.81;4943043;28;20031;-92
2023/01/27 09:08:00;;;;;;;10.70;6.10;;;;;;;10.71;82.48;100527.63;4954129;28;20034;-93
2023/01/27 09:10:46;;;;;;;14.63;6.65;;;;;;;10.84;82.22;100542.19;4942733;28;20026;-91
2023/01/27 09:16:33;;;;;;;12.32;6.28;;;;;;;10.86;81.96;100542.25;4972771;28;20464;-92
2023/01/27 09:18:59;;;;;;;11.48;6.07;;;;;;;10.68;82.03;100518.75;4941543;28;20500;-91
2023/01/27 09:21:38;;;;;;;11.85;6.50;;;;;;;10.79;82.60;100539.38;4950352;28;20512;-92
2023/01/27 09:24:22;;;;;;;15.57;7.28;;;;;;;10.79;82.35;100535.81;4936553;29;20061;-92
2023/01/27 09:26:53;;;;;;;14.98;7.55;;;;;;;10.76;82.33;100507.84;4943825;28;20031;-93
2023/01/27 09:30:12;;;;;;;10.43;5.95;;;;;;;10.78;82.49;100516.66;4957590;28;20030;-93
2023/01/27 09:32:46;;;;;;;11.95;6.75;;;;;;;10.73;82.31;100502.50;4943686;28;20489;-93
2023/01/27 09:35:34;;;;;;;15.77;7.25;;;;;;;10.81;82.32;100502.84;4923677;28;20023;-92
2023/01/27 09:38:05;;;;;;;11.38;5.93;;;;;;;10.82;82.06;100512.50;4926155;29;20063;-91
2023/01/27 09:41:17;;;;;;;10.73;6.28;;;;;;;10.82;82.25;100494.22;4926108;28;20027;-93
2023/01/27 09:44:12;;;;;;;12.00;6.63;;;;;;;10.85;81.96;100496.06;4922914;28;20405;-92
2023/01/27 09:47:13;;;;;;;12.27;6.35;;;;;;;10.86;81.79;100483.09;4957267;28;20026;-91
2023/01/27 09:53:21;;;;;;;12.35;6.22;;;;;;;10.83;82.07;100446.34;4969597;28;20034;-92
2023/01/27 09:56:42;;;;;;;13.18;6.47;;;;;;;10.84;82.17;100445.56;4945286;28;20035;-92
2023/01/27 09:59:41;;;;;;;10.05;6.32;;;;;;;10.72;81.96;100416.22;4943329;28;20042;-91
2023/01/27 10:02:27;;;;;;;11.45;6.28;;;;;;;10.84;81.88;100434.19;4937132;28;20511;-91
2023/01/27 10:05:47;;;;;;;11.77;6.60;;;;;;;10.84;82.29;100426.34;4954137;28;20696;-92
2023/01/27 10:08:41;;;;;;;10.88;6.00;;;;;;;10.84;82.35;100405.44;4947283;28;20038;-91
2023/01/27 10:11:49;;;;;;;13.27;7.13;;;;;;;10.83;82.32;100388.00;4967387;28;20023;-91
2023/01/27 10:18:04;;;;;;;13.35;6.70;;;;;;;10.85;82.11;100379.41;4959375;28;20069;-89
2023/01/27 10:21:09;;;;;;;12.55;6.68;;;;;;;10.87;82.07;100372.53;4940217;28;20043;-92
2023/01/27 10:24:14;;;;;;;14.23;7.40;;;;;;;10.85;82.40;100363.75;4955665;29;20058;-92
2023/01/27 10:26:51;;;;;;;12.10;6.53;;;;;;;10.61;82.31;100323.44;4951449;28;20034;-90
2023/01/27 10:29:58;;;;;;;12.18;6.75;;;;;;;10.88;82.50;100363.91;4950332;29;20039;-91
2023/01/27 10:32:44;;;;;;;12.52;6.63;;;;;;;10.88;82.06;100357.75;4954119;28;20038;-90
2023/01/27 10:35:15;;;;;;;11.90;6.82;;;;;;;10.89;82.47;100355.22;4954225;28;20031;-90
2023/01/27 10:37:47;;;;;;;11.07;6.40;;;;;;;10.87;82.54;100337.69;4938041;29;20485;-91
2023/01/27 10:40:43;;;;;;;12.23;5.93;;;;;;;10.88;82.12;100311.66;4954375;28;20031;-90
2023/01/27 10:43:44;;;;;;;12.82;6.72;;;;;;;10.76;82.16;100287.59;4920390;28;20155;-90
2023/01/27 10:46:30;;;;;;;10.48;6.78;;;;;;;10.94;81.87;100311.94;4942712;29;20481;-92
2023/01/27 10:49:22;;;;;;;12.52;6.82;;;;;;;10.84;82.42;100300.97;4955204;28;20496;-93
2023/01/27 10:51:56;;;;;;;11.05;6.55;;;;;;;10.77;82.17;100300.72;4938906;29;20031;-93
2023/01/27 10:54:31;;;;;;;13.57;6.80;;;;;;;10.68;82.09;100288.94;4936838;29;20108;-93
2023/01/27 10:57:10;;;;;;;11.32;6.43;;;;;;;10.81;81.75;100312.19;4918010;29;20027;-92
2023/01/27 11:00:04;;;;;;;11.60;6.50;;;;;;;11.05;81.79;100324.56;4939016;29;20031;-90
2023/01/27 11:02:34;;;;;;;20.27;8.40;;;;;;;11.10;81.73;100325.69;4938425;29;20023;-91
2023/01/27 11:05:10;;;;;;;29.15;10.27;;;;;;;10.81;82.80;100291.28;4921721;28;20050;-91
2023/01/27 11:07:58;;;;;;;31.60;9.40;;;;;;;10.83;82.76;100302.69;4938319;28;20035;-92
2023/01/27 11:13:38;;;;;;;19.13;8.38;;;;;;;10.78;82.81;100288.56;4939046;29;20115;-93
2023/01/27 11:16:57;;;;;;;18.60;8.13;;;;;;;10.89;83.07;100323.00;4939436;29;20046;-92
2023/01/27 11:19:44;;;;;;;;;;;;;;;10.90;82.90;100317.84;4958852;28;20137;-92
2023/01/27 11:22:14;;;;;;;20.10;8.23;;;;;;;10.92;82.61;100317.88;4953114;28;20045;-92
2023/01/27 11:24:45;;;;;;;17.20;8.32;;;;;;;10.70;82.71;100279.47;4969545;28;20022;-88
2023/01/27 11:27:59;;;;;;;18.05;8.20;;;;;;;10.90;82.28;100311.69;4957865;28;20411;-92
2023/01/27 11:30:36;;;;;;;15.77;7.82;;;;;;;10.92;82.08;100300.53;4955943;28;20045;-92
2023/01/27 11:33:10;;;;;;;18.67;8.07;;;;;;;10.92;82.17;100287.47;4950007;28;20038;-91
2023/01/27 11:35:36;;;;;;;16.20;8.05;;;;;;;10.90;82.30;100277.75;4954074;28;20039;-91
2023/01/27 11:38:19;;;;;;;15.93;7.57;;;;;;;10.93;82.11;100277.91;4940631;28;20089;-91
2023/01/27 11:40:45;;;;;;;16.40;7.90;;;;;;;10.86;82.19;100265.38;4950286;28;20488;-90
2023/01/27 11:43:18;;;;;;;18.80;8.15;;;;;;;10.79;82.11;100240.69;4940490;28;20065;-90
2023/01/27 11:45:45;;;;;;;17.67;7.60;;;;;;;10.84;81.93;100251.34;4955774;28;20475;-90
2023/01/27 11:48:13;;;;;;;17.73;8.13;;;;;;;10.86;81.63;100244.47;4971618;28;20053;-91
2023/01/27 11:50:48;;;;;;;16.83;7.43;;;;;;;10.82;82.15;100240.84;4949519;28;20022;-90
2023/01/27 11:53:29;;;;;;;12.07;7.03;;;;;;;10.82;82.08;100243.47;4954132;28;20587;-90
2023/01/27 11:56:16;;;;;;;14.10;7.55;;;;;;;10.99;82.04;100284.28;4956385;28;20026;-89
2023/01/27 11:59:07;;;;;;;16.90;7.25;;;;;;;10.97;82.38;100283.31;4951419;29;20031;-91
2023/01/27 12:01:57;;;;;;;17.75;7.45;;;;;;;10.99;82.57;100291.25;4966760;28;20024;-91
2023/01/27 12:05:01;;;;;;;11.68;6.93;;;;;;;11.00;82.51;100288.66;4942036;28;20054;-91
2023/01/27 12:07:48;;;;;;;13.18;6.82;;;;;;;11.02;82.71;100298.31;4969690;28;20042;-90
2023/01/27 12:10:28;;;;;;;15.68;7.22;;;;;;;11.03;82.82;100300.06;4955267;28;20022;-89
2023/01/27 12:12:55;;;;;;;14.30;7.40;;;;;;;10.89;82.62;100268.13;4973870;28;20097;-88
2023/01/27 12:15:34;;;;;;;14.55;7.28;;;;;;;11.06;82.77;100298.50;4957086;28;20030;-90
2023/01/27 12:18:14;;;;;;;11.50;6.22;;;;;;;10.91;82.78;100277.81;4944057;28;20117;-91
2023/01/27 12:20:43;;;;;;;13.25;6.38;;;;;;;10.85;82.88;100267.09;4953452;28;20043;-90
2023/01/27 12:23:23;;;;;;;13.43;6.95;;;;;;;11.08;82.66;100309.03;4955819;28;20031;-92
2023/01/27 12:26:10;;;;;;;12.00;6.88;;;;;;;11.03;82.91;100311.44;4954594;28;20030;-90
2023/01/27 12:28:40;;;;;;;12.82;7.03;;;;;;;11.07;83.05;100315.06;4970539;28;20031;-91
2023/01/27 12:31:29;;;;;;;13.55;6.88;;;;;;;11.05;82.97;100309.81;4972126;28;20054;-91
2023/01/27 12:34:04;;;;;;;13.10;7.07;;;;;;;10.92;82.88;100287.47;4955531;28;20050;-90